Terminal Aerodrome Forecast
Issued by NWS

Home | Current Version | Previous Version | Text Only | Print | Product List | Glossary On
Versions: 1 2 3 4 5 6 7 8 9 10 11 12 13
000
FTUS44 KMAF 262300
TAFHOB
TAF
KHOB 262325Z 2700/2724 27012G18KT P6SM BKN060
     FM270100 28010KT P6SM OVC060
     FM270500 35009KT P6SM OVC060=

USA.gov is the U.S. government's official web portal to all federal, state and local government web resources and services.